»·PEaware :: DCM205 KMRY-KSMF

DCM205 :: KMRY-KSMF

FLIGHT INFORMATION

Flight Status: Arrived
Operator:
DotCom
More flights by this operator :: More flights under this callsign
Pilot: Chris S. (2433)
Aircraft: AIRBUS A320
(A320)
More flights by this aircraft type
Origin: KMRY Monterey Peninsula
United States
Destination: KSMF Sacramento Intl
United States
More flights between these airports :: More routes between these airports
Route: MRY5 SNS SJC SALAD SAC
File this flight plan on PilotEdge
Remarks:
Altitude:
(Current/Filed)
15,000ft
Speed:
(Current/Filed)
450kts
Departed: 22-Dec-20 10:33 AM
Arrived: 22-Dec-20 11:07 AM
Distance/Time
Traveled:
127nm/0:33
Distance/Time
To Go:
Arrived

Flight Plot

Page will automatically refresh every two minutes.

Flight plan parsing failed; only flown route is shown


Map Options




Map Legend


Flown Route
Filed Route
Departure Airport
Arrival Airport
Navaid (VOR, NDB)
Fix

Horizontal Profiles

Position Reports

Time Latitude Longitude Heading Altitude Ground
Speed
22-Dec-20 10:10 36.588085 -121.851269 238 219ft 0kts
22-Dec-20 10:11 36.588085 -121.851269 238 219ft 0kts
22-Dec-20 10:12 36.588085 -121.851269 238 219ft 0kts
22-Dec-20 10:13 36.588085 -121.851269 238 219ft 0kts
22-Dec-20 10:14 36.588085 -121.851269 238 219ft 0kts
22-Dec-20 10:15 36.588085 -121.851269 238 219ft 0kts
22-Dec-20 10:16 36.588085 -121.851269 238 219ft 0kts
22-Dec-20 10:17 36.588085 -121.851269 238 219ft 0kts
22-Dec-20 10:18 36.588085 -121.851269 238 219ft 0kts
22-Dec-20 10:19 36.588085 -121.851269 238 219ft 0kts
22-Dec-20 10:20 36.588085 -121.851269 238 219ft 0kts
22-Dec-20 10:21 36.588085 -121.851269 238 219ft 0kts
22-Dec-20 10:22 36.588085 -121.851269 238 219ft 0kts
22-Dec-20 10:23 36.588084 -121.851270 238 219ft 0kts
22-Dec-20 10:24 36.588084 -121.851271 238 219ft 0kts
22-Dec-20 10:25 36.588103 -121.851478 296 219ft 0kts
22-Dec-20 10:26 36.588103 -121.851479 296 219ft 0kts
22-Dec-20 10:27 36.587887 -121.849388 111 219ft 16kts
22-Dec-20 10:29 36.585986 -121.844292 112 219ft 16kts
22-Dec-20 10:30 36.583764 -121.837621 114 219ft 20kts
22-Dec-20 10:31 36.582884 -121.834948 99 219ft 0kts
22-Dec-20 10:32 36.582845 -121.834090 86 219ft 15kts
22-Dec-20 10:33 36.585983 -121.841241 292 219ft 109kts
22-Dec-20 10:34 36.603698 -121.891066 323 1631ft 159kts
22-Dec-20 10:35 36.650051 -121.910455 341 3367ft 203kts
22-Dec-20 10:36 36.707400 -121.921083 359 6029ft 234kts
22-Dec-20 10:37 36.771532 -121.923381 356 8233ft 276kts
22-Dec-20 10:38 36.850781 -121.926017 356 10996ft 302kts
22-Dec-20 10:39 36.945432 -121.929412 356 11968ft 372kts
22-Dec-20 10:40 37.053647 -121.933168 356 13673ft 397kts
22-Dec-20 10:41 37.165113 -121.937151 355 14987ft 404kts
22-Dec-20 10:42 37.277845 -121.941137 355 14999ft 404kts
22-Dec-20 10:43 37.389966 -121.945127 355 15003ft 403kts
22-Dec-20 10:43 37.483235 -121.948813 355 15007ft 402kts
22-Dec-20 10:45 37.613859 -121.953866 355 15013ft 402kts
22-Dec-20 10:46 37.725739 -121.958212 355 15014ft 402kts
22-Dec-20 10:47 37.834074 -121.925626 23 15027ft 413kts
22-Dec-20 10:47 37.919779 -121.871222 22 15028ft 412kts
22-Dec-20 10:48 38.023320 -121.809175 22 15035ft 412kts
22-Dec-20 10:49 38.126206 -121.746236 22 14780ft 395kts
22-Dec-20 10:50 38.219460 -121.689308 22 13288ft 352kts
22-Dec-20 10:51 38.303736 -121.636485 31 11790ft 335kts
22-Dec-20 10:52 38.331268 -121.527091 108 9835ft 351kts
22-Dec-20 10:53 38.263607 -121.449296 174 7859ft 339kts
22-Dec-20 10:54 38.198926 -121.505789 261 6818ft 282kts
22-Dec-20 10:55 38.236895 -121.580748 332 5424ft 268kts
22-Dec-20 10:56 38.301378 -121.625462 333 4217ft 258kts
22-Dec-20 10:57 38.360399 -121.660952 4 3997ft 204kts
22-Dec-20 10:58 38.404478 -121.630167 33 3630ft 175kts
22-Dec-20 10:59 38.447569 -121.605387 2 3532ft 175kts
22-Dec-20 11:00 38.496628 -121.604553 2 3512ft 176kts
22-Dec-20 11:01 38.543223 -121.603791 1 2764ft 149kts
22-Dec-20 11:02 38.582475 -121.603138 1 2040ft 139kts
22-Dec-20 11:03 38.621463 -121.602488 359 1276ft 142kts
22-Dec-20 11:04 38.661083 -121.601830 358 549ft 142kts
22-Dec-20 11:05 38.694292 -121.601357 3 42ft 45kts
22-Dec-20 11:06 38.697016 -121.596669 89 42ft 14kts
22-Dec-20 11:07 38.695350 -121.596620 149 42ft 1kts
22-Dec-20 11:08 38.695204 -121.596508 149 42ft 0kts

Navigation Log

Ident Type
Flight plan parsing failed, navigation log unavailable